Terminal Aerodrome Forecast
Issued by NWS

Current Version | Previous Version | Text Only | Print | Product List | Glossary Off
Versions: 1 2 3 4 5 6 7 8 9 10 11 12 13 14 15 16

011
FTUS41 KPBZ 181720
TAFHLG
TAF
KHLG 181720Z 1818/1918 09015G25KT P6SM OVC050
     FM190600 10013KT P6SM -SHRA OVC050
     FM190900 11011KT P6SM VCSH OVC025
     FM191400 16010KT P6SM VCSH BKN050=

USA.gov is the U.S. government's official web portal to all federal, state and local government web resources and services.